createdAt,value
2023-03-13T00:01:13.169Z,4.54
2023-03-13T00:03:40.059Z,4.53
2023-03-13T00:06:07.069Z,4.59
2023-03-13T00:08:33.921Z,4.58
2023-03-13T00:11:05.722Z,4.57
2023-03-13T00:13:33.002Z,4.59
2023-03-13T00:16:05.045Z,4.58
2023-03-13T00:18:31.836Z,4.58
2023-03-13T00:21:00.273Z,4.62
2023-03-13T00:23:28.049Z,4.62
2023-03-13T00:26:07.663Z,4.72
2023-03-13T00:28:36.308Z,4.68
2023-03-13T00:31:20.471Z,4.72
2023-03-13T00:33:49.588Z,4.75
2023-03-13T00:36:25.110Z,4.81
2023-03-13T00:38:54.482Z,4.76
2023-03-13T00:41:26.863Z,4.84
2023-03-13T00:43:54.348Z,4.88
2023-03-13T00:46:23.798Z,4.96
2023-03-13T00:48:50.862Z,5.00
2023-03-13T00:51:19.083Z,5.05
2023-03-13T00:53:46.575Z,5.08
2023-03-13T00:56:15.806Z,5.08
2023-03-13T00:58:45.716Z,5.12
2023-03-13T01:01:13.868Z,5.19
2023-03-13T01:03:42.666Z,5.25
2023-03-13T01:06:12.548Z,5.25
2023-03-13T01:08:39.689Z,5.27
2023-03-13T01:11:16.803Z,5.27
2023-03-13T01:13:44.072Z,5.23
2023-03-13T01:16:13.776Z,5.23
2023-03-13T01:18:44.356Z,5.26
2023-03-13T01:21:12.321Z,5.23
2023-03-13T01:23:39.185Z,5.27
2023-03-13T01:26:07.346Z,5.31
2023-03-13T01:28:35.504Z,5.37
2023-03-13T01:31:18.822Z,5.41
2023-03-13T01:33:46.981Z,5.43
2023-03-13T01:36:14.392Z,5.47
2023-03-13T01:38:41.330Z,5.51
2023-03-13T01:41:11.027Z,5.55
2023-03-13T01:43:38.308Z,5.56
2023-03-13T01:46:10.916Z,5.56
2023-03-13T01:48:43.945Z,5.64
2023-03-13T01:51:33.009Z,5.67
2023-03-13T01:54:23.399Z,5.66
2023-03-13T01:57:08.946Z,5.69
2023-03-13T01:59:44.244Z,5.68
2023-03-13T02:02:11.635Z,5.70
2023-03-13T02:04:47.188Z,5.70
2023-03-13T02:07:18.835Z,5.72
2023-03-13T02:09:51.402Z,5.71
2023-03-13T02:12:30.981Z,5.75
2023-03-13T02:14:59.695Z,5.77
2023-03-13T02:17:26.930Z,5.77
2023-03-13T02:19:53.770Z,5.70
2023-03-13T02:22:59.717Z,5.78
2023-03-13T02:25:47.758Z,5.79
2023-03-13T02:28:17.475Z,5.83
2023-03-13T02:30:45.417Z,5.79
2023-03-13T02:33:14.374Z,5.79
2023-03-13T02:35:43.661Z,5.83
2023-03-13T02:38:12.953Z,5.87
2023-03-13T02:40:45.351Z,5.83
2023-03-13T02:43:35.653Z,5.87
2023-03-13T02:46:07.406Z,5.86
2023-03-13T02:48:40.064Z,5.95
2023-03-13T02:51:34.012Z,5.91
2023-03-13T02:54:04.136Z,5.87
2023-03-13T02:56:33.607Z,5.86
2023-03-13T02:59:00.564Z,5.85
2023-03-13T03:01:27.388Z,5.87
2023-03-13T03:03:54.427Z,5.89
2023-03-13T03:06:21.221Z,5.90
2023-03-13T03:08:47.977Z,5.93
2023-03-13T03:11:14.764Z,5.99
2023-03-13T03:13:41.576Z,5.96
2023-03-13T03:16:15.265Z,5.93
2023-03-13T03:18:42.272Z,5.97
2023-03-13T03:21:08.982Z,5.94
2023-03-13T03:23:37.009Z,5.99
2023-03-13T03:26:05.547Z,5.99
2023-03-13T03:28:32.591Z,6.00
2023-03-13T03:31:05.284Z,5.99
2023-03-13T03:33:32.061Z,5.95
2023-03-13T03:36:03.881Z,5.94
2023-03-13T03:38:31.103Z,5.95
2023-03-13T03:40:57.882Z,5.93
2023-03-13T03:43:24.879Z,5.90
2023-03-13T03:45:51.770Z,5.91
2023-03-13T03:48:18.523Z,5.92
2023-03-13T03:50:45.317Z,5.89
2023-03-13T03:53:12.144Z,5.92
2023-03-13T03:55:39.208Z,5.97
2023-03-13T03:58:06.000Z,5.98
2023-03-13T04:00:32.738Z,5.99
2023-03-13T04:02:59.681Z,5.98
2023-03-13T04:05:26.529Z,5.98
2023-03-13T04:07:53.276Z,5.98
2023-03-13T04:10:20.092Z,6.00
2023-03-13T04:12:47.067Z,6.00
2023-03-13T04:15:13.982Z,6.08
2023-03-13T04:17:40.685Z,6.05
2023-03-13T04:20:08.316Z,6.02
2023-03-13T04:22:35.033Z,6.06
2023-03-13T04:25:01.805Z,6.08
2023-03-13T04:27:28.493Z,6.11
2023-03-13T04:29:55.323Z,6.11
2023-03-13T04:32:22.159Z,6.09
2023-03-13T04:34:49.053Z,6.12
2023-03-13T04:37:15.799Z,6.15
2023-03-13T04:39:42.550Z,6.13
2023-03-13T04:42:11.211Z,6.15
2023-03-13T04:44:38.098Z,6.14
2023-03-13T04:47:05.472Z,6.16
2023-03-13T04:49:32.330Z,6.17
2023-03-13T04:51:59.066Z,6.15
2023-03-13T04:54:25.862Z,6.17
2023-03-13T04:56:52.650Z,6.19
2023-03-13T04:59:19.424Z,6.19
2023-03-13T05:01:46.166Z,6.22
2023-03-13T05:04:13.522Z,6.23
2023-03-13T05:06:40.270Z,6.25
2023-03-13T05:09:07.080Z,6.24
2023-03-13T05:11:34.041Z,6.24
2023-03-13T05:14:00.902Z,6.23
2023-03-13T05:16:27.864Z,6.25
2023-03-13T05:18:54.885Z,6.22
2023-03-13T05:21:21.700Z,6.29
2023-03-13T05:23:48.441Z,6.26
2023-03-13T05:26:15.156Z,6.38
2023-03-13T05:28:41.911Z,6.33
2023-03-13T05:31:08.784Z,6.36
2023-03-13T05:33:35.680Z,6.36
2023-03-13T05:36:02.478Z,6.37
2023-03-13T05:38:29.326Z,6.37
2023-03-13T05:40:56.116Z,6.36
2023-03-13T05:43:23.132Z,6.34
2023-03-13T05:45:49.857Z,6.33
2023-03-13T05:48:16.588Z,6.33
2023-03-13T05:50:43.746Z,6.34
2023-03-13T05:53:10.543Z,6.34
2023-03-13T05:55:37.338Z,6.30
2023-03-13T05:58:04.501Z,6.29
2023-03-13T06:00:31.392Z,6.27
2023-03-13T06:02:58.089Z,6.29
2023-03-13T06:05:24.873Z,6.28
2023-03-13T06:07:51.577Z,6.29
2023-03-13T06:10:18.628Z,6.29
2023-03-13T06:12:51.781Z,6.31
2023-03-13T06:15:18.594Z,6.31
2023-03-13T06:17:45.298Z,6.33
2023-03-13T06:20:12.898Z,6.33
2023-03-13T06:22:40.326Z,6.34
2023-03-13T06:25:07.657Z,6.36
2023-03-13T06:27:35.511Z,6.37
2023-03-13T06:30:02.975Z,6.38
2023-03-13T06:32:29.846Z,6.39
2023-03-13T06:34:56.934Z,6.44
2023-03-13T06:37:23.975Z,6.45
2023-03-13T06:39:50.756Z,6.46
2023-03-13T06:42:17.489Z,6.48
2023-03-13T06:44:44.789Z,6.50
2023-03-13T06:47:14.282Z,6.53
2023-03-13T06:49:41.756Z,6.53
2023-03-13T06:52:08.750Z,6.56
2023-03-13T06:54:35.552Z,6.58
2023-03-13T06:57:02.353Z,6.59
2023-03-13T06:59:29.330Z,6.60
2023-03-13T07:01:56.193Z,6.65
2023-03-13T07:04:23.123Z,6.65
2023-03-13T07:06:51.360Z,6.66
2023-03-13T07:09:20.081Z,6.70
2023-03-13T07:11:47.616Z,6.69
2023-03-13T07:14:17.344Z,6.72
2023-03-13T07:16:45.529Z,6.72
2023-03-13T07:19:12.820Z,6.74
2023-03-13T07:21:39.685Z,6.78
2023-03-13T07:24:06.951Z,6.83
2023-03-13T07:26:33.797Z,6.81
2023-03-13T07:29:00.705Z,6.84
2023-03-13T07:31:30.091Z,6.85
2023-03-13T07:33:56.970Z,6.87
2023-03-13T07:36:24.009Z,6.91
2023-03-13T07:38:52.304Z,6.93
2023-03-13T07:41:20.478Z,6.91
2023-03-13T07:43:47.519Z,6.94
2023-03-13T07:46:18.742Z,6.94
2023-03-13T07:48:46.388Z,6.95
2023-03-13T07:51:20.532Z,6.99
2023-03-13T07:53:50.683Z,7.04
2023-03-13T07:56:20.153Z,7.05
2023-03-13T07:58:47.376Z,7.12
2023-03-13T08:01:29.128Z,7.14
2023-03-13T08:03:58.557Z,7.17
2023-03-13T08:06:26.690Z,7.23
2023-03-13T08:08:56.629Z,7.25
2023-03-13T08:11:25.250Z,7.31
2023-03-13T08:13:53.642Z,7.39
2023-03-13T08:16:22.305Z,7.44
2023-03-13T08:18:51.456Z,7.55
2023-03-13T08:21:29.652Z,7.63
2023-03-13T08:23:57.985Z,7.70
2023-03-13T08:26:28.863Z,7.73
2023-03-13T08:28:58.524Z,7.78
2023-03-13T08:31:30.899Z,7.83
2023-03-13T08:33:58.500Z,7.86
2023-03-13T08:36:28.017Z,7.90
2023-03-13T08:38:59.138Z,7.91
2023-03-13T08:41:29.218Z,7.96
2023-03-13T08:43:57.120Z,7.98
2023-03-13T08:46:24.969Z,8.26
2023-03-13T08:48:54.329Z,8.27
2023-03-13T08:51:23.529Z,8.15
2023-03-13T08:53:51.289Z,8.23
2023-03-13T08:56:20.624Z,8.28
2023-03-13T08:58:52.178Z,8.22
2023-03-13T09:01:20.172Z,8.16
2023-03-13T09:03:47.249Z,8.23
2023-03-13T09:06:14.511Z,8.23
2023-03-13T09:08:42.167Z,8.24
2023-03-13T09:11:11.515Z,8.24
2023-03-13T09:13:41.374Z,8.29
2023-03-13T09:16:13.269Z,8.28
2023-03-13T09:18:40.989Z,8.28
2023-03-13T09:21:10.162Z,8.32
2023-03-13T09:23:37.141Z,8.33
2023-03-13T09:26:04.725Z,8.34
2023-03-13T09:28:31.747Z,8.37
2023-03-13T09:31:08.109Z,8.42
2023-03-13T09:33:35.076Z,8.43
2023-03-13T09:36:01.885Z,8.47
2023-03-13T09:38:28.847Z,8.56
2023-03-13T09:41:05.768Z,8.60
2023-03-13T09:43:40.460Z,8.66
2023-03-13T09:46:18.494Z,8.72
2023-03-13T09:48:56.270Z,8.75
2023-03-13T09:51:29.770Z,8.85
2023-03-13T09:54:18.576Z,8.85
2023-03-13T09:56:52.571Z,8.90
2023-03-13T09:59:46.297Z,8.91
2023-03-13T10:02:30.158Z,8.90
2023-03-13T10:05:22.961Z,9.03
2023-03-13T10:07:51.249Z,9.10
2023-03-13T10:10:26.367Z,9.22
2023-03-13T10:13:01.321Z,9.22
2023-03-13T10:15:32.709Z,9.33
2023-03-13T10:18:05.569Z,9.34
2023-03-13T10:20:36.330Z,9.37
2023-03-13T10:23:19.157Z,9.48
2023-03-13T10:25:46.053Z,9.61
2023-03-13T10:28:20.247Z,9.70
2023-03-13T10:30:52.212Z,9.71
2023-03-13T10:33:23.747Z,9.72
2023-03-13T10:36:23.731Z,9.84
2023-03-13T10:38:53.064Z,9.88
2023-03-13T10:41:30.414Z,9.88
2023-03-13T10:44:04.759Z,9.94
2023-03-13T10:46:34.611Z,9.95
2023-03-13T10:49:04.772Z,10.05
2023-03-13T10:51:40.148Z,10.03
2023-03-13T10:54:23.257Z,10.04
2023-03-13T10:56:51.492Z,10.08
2023-03-13T10:59:26.701Z,10.11
2023-03-13T11:02:00.494Z,10.16
2023-03-13T11:04:32.454Z,10.24
2023-03-13T11:07:06.220Z,10.29
2023-03-13T11:09:33.383Z,10.30
2023-03-13T11:12:14.186Z,10.34
2023-03-13T11:14:42.726Z,10.38
2023-03-13T11:17:27.140Z,10.42
2023-03-13T11:20:23.540Z,10.46
2023-03-13T11:23:15.118Z,10.53
2023-03-13T11:26:10.530Z,10.60
2023-03-13T11:28:37.290Z,10.68
2023-03-13T11:31:11.378Z,10.78
2023-03-13T11:33:53.494Z,10.87
2023-03-13T11:36:36.410Z,10.97
2023-03-13T11:39:21.903Z,11.10
2023-03-13T11:41:55.004Z,11.25
2023-03-13T11:44:36.491Z,11.42
2023-03-13T11:47:28.475Z,11.47
2023-03-13T11:50:14.151Z,11.57
2023-03-13T11:53:02.507Z,11.69
2023-03-13T11:56:10.768Z,11.81
2023-03-13T11:58:46.711Z,12.08
2023-03-13T12:01:18.835Z,12.41
2023-03-13T12:04:20.506Z,13.44
2023-03-13T12:06:55.004Z,13.44
2023-03-13T12:09:29.467Z,13.77
2023-03-13T12:12:03.441Z,14.45
2023-03-13T12:14:50.726Z,14.43
2023-03-13T12:17:27.589Z,14.38
2023-03-13T12:20:17.365Z,14.54
2023-03-13T12:23:11.453Z,14.63
2023-03-13T12:25:51.092Z,14.83
2023-03-13T12:28:26.088Z,14.95
2023-03-13T12:31:00.356Z,14.56
2023-03-13T12:33:37.944Z,14.80
2023-03-13T12:36:12.617Z,14.80
2023-03-13T12:38:46.465Z,15.07
2023-03-13T12:41:19.572Z,15.39
2023-03-13T12:44:08.426Z,15.63
2023-03-13T12:47:17.827Z,15.46
2023-03-13T12:50:01.272Z,15.66
2023-03-13T12:52:56.004Z,15.77
2023-03-13T12:55:52.935Z,15.62
2023-03-13T12:58:41.027Z,15.71
2023-03-13T13:01:14.440Z,15.54
2023-03-13T13:03:51.334Z,15.18
2023-03-13T13:06:18.846Z,15.11
2023-03-13T13:08:54.830Z,15.08
2023-03-13T13:11:34.085Z,15.12
2023-03-13T13:14:02.002Z,14.98
2023-03-13T13:16:29.812Z,15.11
2023-03-13T13:19:24.411Z,15.03
2023-03-13T13:22:28.811Z,15.48
2023-03-13T13:25:00.659Z,15.85
2023-03-13T13:27:48.471Z,15.85
2023-03-13T13:30:18.762Z,15.92
2023-03-13T13:32:47.930Z,16.44
2023-03-13T13:35:35.126Z,16.13
2023-03-13T13:38:20.652Z,15.97
2023-03-13T13:41:09.767Z,15.65
2023-03-13T13:43:39.030Z,15.49
2023-03-13T13:46:18.921Z,15.54
2023-03-13T13:48:45.888Z,15.31
2023-03-13T13:51:14.153Z,15.39
2023-03-13T13:53:50.627Z,15.65
2023-03-13T13:56:29.902Z,15.73
2023-03-13T13:59:12.501Z,15.97
2023-03-13T14:01:41.450Z,16.37
2023-03-13T14:04:17.278Z,17.16
2023-03-13T14:06:50.054Z,17.49
2023-03-13T14:09:39.126Z,17.41
2023-03-13T14:12:27.810Z,17.17
2023-03-13T14:15:06.934Z,17.29
2023-03-13T14:17:49.034Z,17.03
2023-03-13T14:20:37.208Z,16.92
2023-03-13T14:23:11.861Z,16.69
2023-03-13T14:25:49.645Z,16.21
2023-03-13T14:28:27.977Z,16.52
2023-03-13T14:30:57.654Z,16.25
2023-03-13T14:33:29.293Z,16.12
2023-03-13T14:35:57.709Z,16.40
2023-03-13T14:38:27.259Z,17.21
2023-03-13T14:40:58.345Z,17.05
2023-03-13T14:43:28.405Z,17.28
2023-03-13T14:45:55.443Z,17.70
2023-03-13T14:48:33.347Z,18.11
2023-03-13T14:51:25.431Z,17.92
2023-03-13T14:54:02.910Z,18.18
2023-03-13T14:56:36.200Z,18.14
2023-03-13T14:59:17.183Z,17.78
2023-03-13T15:01:44.248Z,17.81
2023-03-13T15:04:11.181Z,17.26
2023-03-13T15:06:38.167Z,17.21
2023-03-13T15:09:10.866Z,16.81
2023-03-13T15:12:00.074Z,16.60
2023-03-13T15:14:47.904Z,16.51
2023-03-13T15:17:27.568Z,16.32
2023-03-13T15:19:56.773Z,16.27
2023-03-13T15:22:38.070Z,15.95
2023-03-13T15:25:14.681Z,15.73
2023-03-13T15:27:41.537Z,15.82
2023-03-13T15:30:09.083Z,15.77
2023-03-13T15:32:39.046Z,15.78
2023-03-13T15:35:28.924Z,15.70
2023-03-13T15:37:57.416Z,15.68
2023-03-13T15:40:24.593Z,15.60
2023-03-13T15:42:52.902Z,15.58
2023-03-13T15:45:20.607Z,15.60
2023-03-13T15:47:48.845Z,15.65
2023-03-13T15:50:18.713Z,15.61
2023-03-13T15:52:45.547Z,15.52
2023-03-13T15:55:12.993Z,15.46
2023-03-13T15:57:47.094Z,15.37
2023-03-13T16:00:25.328Z,15.28
2023-03-13T16:02:52.214Z,15.21
2023-03-13T16:05:19.278Z,15.16
2023-03-13T16:07:46.231Z,15.14
2023-03-13T16:10:23.796Z,15.09
2023-03-13T16:12:52.349Z,15.04
2023-03-13T16:15:19.278Z,14.99
2023-03-13T16:17:46.051Z,15.06
2023-03-13T16:20:16.418Z,14.97
2023-03-13T16:22:43.657Z,14.93
2023-03-13T16:25:13.603Z,14.88
2023-03-13T16:27:41.963Z,14.89
2023-03-13T16:30:27.902Z,14.79
2023-03-13T16:32:55.190Z,14.71
2023-03-13T16:35:23.187Z,14.73
2023-03-13T16:37:50.954Z,14.64
2023-03-13T16:40:23.869Z,14.64
2023-03-13T16:42:50.802Z,14.56
2023-03-13T16:45:18.206Z,14.50
2023-03-13T16:47:45.896Z,14.47
2023-03-13T16:50:24.938Z,14.42
2023-03-13T16:52:52.337Z,14.43
2023-03-13T16:55:20.163Z,14.40
2023-03-13T16:57:46.969Z,14.48
2023-03-13T17:00:20.230Z,14.54
2023-03-13T17:02:47.327Z,14.54
2023-03-13T17:05:16.142Z,14.47
2023-03-13T17:07:48.840Z,14.49
2023-03-13T17:10:27.726Z,14.41
2023-03-13T17:12:54.657Z,14.42
2023-03-13T17:15:23.022Z,14.48
2023-03-13T17:17:51.889Z,14.41
2023-03-13T17:20:22.458Z,14.42
2023-03-13T17:22:49.762Z,14.38
2023-03-13T17:25:16.839Z,14.44
2023-03-13T17:27:44.039Z,14.50
2023-03-13T17:30:22.946Z,14.48
2023-03-13T17:32:50.998Z,14.48
2023-03-13T17:35:20.560Z,14.50
2023-03-13T17:37:48.612Z,14.54
2023-03-13T17:40:22.708Z,14.42
2023-03-13T17:42:50.133Z,14.45
2023-03-13T17:45:17.779Z,14.48
2023-03-13T17:47:45.161Z,14.54
2023-03-13T17:50:26.930Z,14.54
2023-03-13T17:52:54.019Z,14.57
2023-03-13T17:55:21.318Z,14.55
2023-03-13T17:57:48.907Z,14.50
2023-03-13T18:00:34.975Z,14.57
2023-03-13T18:03:01.867Z,14.58
2023-03-13T18:05:29.106Z,14.53
2023-03-13T18:07:56.539Z,14.54
2023-03-13T18:10:26.637Z,14.56
2023-03-13T18:12:53.690Z,14.53
2023-03-13T18:15:26.145Z,14.58
2023-03-13T18:17:53.874Z,14.56
2023-03-13T18:20:23.898Z,14.53
2023-03-13T18:22:50.822Z,14.52
2023-03-13T18:25:17.870Z,14.60
2023-03-13T18:27:44.818Z,14.55
2023-03-13T18:30:16.085Z,14.52
2023-03-13T18:32:42.935Z,14.39
2023-03-13T18:35:10.200Z,14.33
2023-03-13T18:37:37.072Z,14.30
2023-03-13T18:40:10.746Z,14.30
2023-03-13T18:42:37.536Z,14.27
2023-03-13T18:45:05.053Z,14.28
2023-03-13T18:47:31.800Z,14.28
2023-03-13T18:49:58.545Z,14.29
2023-03-13T18:52:25.617Z,14.32
2023-03-13T18:54:52.330Z,14.32
2023-03-13T18:57:20.193Z,14.32
2023-03-13T18:59:47.067Z,14.27
2023-03-13T19:02:18.482Z,14.26
2023-03-13T19:04:47.056Z,14.28
2023-03-13T19:07:26.042Z,14.36
2023-03-13T19:09:54.545Z,14.36
2023-03-13T19:12:21.416Z,14.23
2023-03-13T19:14:48.178Z,14.21
2023-03-13T19:17:24.553Z,14.20
2023-03-13T19:19:51.491Z,14.15
2023-03-13T19:22:18.303Z,14.12
2023-03-13T19:24:45.101Z,14.04
2023-03-13T19:27:14.544Z,13.98
2023-03-13T19:29:41.269Z,13.85
2023-03-13T19:32:13.921Z,13.83
2023-03-13T19:34:40.742Z,13.73
2023-03-13T19:37:11.101Z,13.63
2023-03-13T19:39:37.957Z,13.62
2023-03-13T19:42:06.487Z,13.61
2023-03-13T19:44:33.307Z,13.61
2023-03-13T19:47:00.534Z,13.65
2023-03-13T19:49:28.186Z,13.66
2023-03-13T19:51:55.043Z,13.59
2023-03-13T19:54:24.291Z,13.61
2023-03-13T19:56:51.164Z,13.63
2023-03-13T19:59:20.643Z,13.70
2023-03-13T20:01:48.016Z,13.68
2023-03-13T20:04:16.529Z,13.86
2023-03-13T20:06:44.304Z,13.91
2023-03-13T20:09:16.907Z,13.95
2023-03-13T20:11:44.833Z,13.96
2023-03-13T20:14:12.445Z,13.89
2023-03-13T20:16:39.733Z,14.00
2023-03-13T20:19:07.000Z,14.00
2023-03-13T20:21:37.001Z,13.82
2023-03-13T20:24:04.224Z,13.74
2023-03-13T20:26:31.299Z,13.63
2023-03-13T20:28:58.720Z,13.59
2023-03-13T20:31:29.039Z,13.51
2023-03-13T20:33:57.009Z,13.43
2023-03-13T20:36:24.701Z,13.48
2023-03-13T20:38:52.117Z,13.48
2023-03-13T20:41:24.567Z,13.41
2023-03-13T20:43:52.276Z,13.40
2023-03-13T20:46:19.767Z,13.38
2023-03-13T20:48:46.743Z,13.35
2023-03-13T20:51:14.203Z,13.29
2023-03-13T20:53:41.994Z,13.26
2023-03-13T20:56:10.706Z,13.18
2023-03-13T20:58:38.219Z,13.15
2023-03-13T21:01:06.806Z,13.11
2023-03-13T21:03:35.606Z,12.97
2023-03-13T21:06:17.716Z,12.91
2023-03-13T21:08:45.770Z,12.84
2023-03-13T21:11:23.339Z,12.77
2023-03-13T21:13:50.668Z,12.76
2023-03-13T21:16:19.113Z,12.64
2023-03-13T21:18:47.583Z,12.62
2023-03-13T21:21:18.660Z,12.57
2023-03-13T21:23:46.690Z,12.52
2023-03-13T21:26:14.284Z,12.48
2023-03-13T21:28:41.332Z,12.49
2023-03-13T21:31:13.491Z,12.53
2023-03-13T21:33:41.452Z,12.18
2023-03-13T21:36:09.901Z,12.05
2023-03-13T21:38:37.605Z,12.06
2023-03-13T21:41:12.573Z,12.07
2023-03-13T21:43:43.822Z,11.97
2023-03-13T21:46:12.378Z,11.82
2023-03-13T21:48:40.496Z,11.69
2023-03-13T21:51:07.985Z,11.81
2023-03-13T21:53:35.541Z,11.77
2023-03-13T21:56:02.670Z,11.72
2023-03-13T21:58:29.662Z,11.77
2023-03-13T22:00:57.423Z,11.75
2023-03-13T22:03:26.800Z,11.71
2023-03-13T22:05:53.910Z,11.67
2023-03-13T22:08:20.806Z,11.62
2023-03-13T22:10:49.693Z,11.56
2023-03-13T22:13:17.050Z,11.58
2023-03-13T22:15:46.659Z,11.57
2023-03-13T22:18:17.415Z,11.61
2023-03-13T22:20:44.318Z,11.66
2023-03-13T22:23:12.255Z,11.77
2023-03-13T22:25:40.940Z,11.85
2023-03-13T22:28:08.680Z,11.79
2023-03-13T22:30:37.127Z,11.74
2023-03-13T22:33:06.817Z,11.67
2023-03-13T22:35:35.207Z,11.75
2023-03-13T22:38:02.655Z,11.71
2023-03-13T22:40:29.529Z,11.69
2023-03-13T22:42:56.346Z,11.68
2023-03-13T22:45:23.150Z,11.61
2023-03-13T22:47:50.276Z,11.59
2023-03-13T22:50:18.848Z,11.51
2023-03-13T22:52:45.569Z,11.45
2023-03-13T22:55:12.749Z,11.43
2023-03-13T22:57:39.765Z,11.13
2023-03-13T23:00:08.921Z,11.12
2023-03-13T23:02:35.658Z,11.04
2023-03-13T23:05:02.478Z,11.09
2023-03-13T23:07:30.137Z,10.95
2023-03-13T23:09:58.451Z,10.90
2023-03-13T23:12:25.989Z,10.88
2023-03-13T23:14:54.492Z,10.81
2023-03-13T23:17:21.274Z,10.65
2023-03-13T23:19:48.202Z,10.77
2023-03-13T23:22:18.093Z,10.78
2023-03-13T23:24:45.390Z,10.80
2023-03-13T23:27:12.357Z,10.73
2023-03-13T23:29:39.959Z,10.68
2023-03-13T23:32:07.169Z,10.74
2023-03-13T23:34:35.810Z,10.75
2023-03-13T23:37:02.676Z,10.72
2023-03-13T23:39:29.679Z,10.72
2023-03-13T23:41:56.548Z,10.69
2023-03-13T23:44:23.482Z,10.69
2023-03-13T23:46:50.323Z,10.58
2023-03-13T23:49:17.175Z,10.68
2023-03-13T23:51:43.978Z,10.66
2023-03-13T23:54:10.732Z,10.63
2023-03-13T23:56:37.594Z,10.64
2023-03-13T23:59:04.601Z,10.64
